createdAt,value
2016-06-03T00:00:56.249Z,1005.3
2016-06-03T00:01:56.252Z,1005.33
2016-06-03T00:02:56.255Z,1005.29
2016-06-03T00:03:56.242Z,1005.33
2016-06-03T00:04:56.244Z,1005.33
2016-06-03T00:05:56.247Z,1005.32
2016-06-03T00:06:56.250Z,1005.33
2016-06-03T00:07:56.237Z,1005.3
2016-06-03T00:08:56.239Z,1005.32
2016-06-03T00:09:56.242Z,1005.28
2016-06-03T00:10:56.229Z,1005.25
2016-06-03T00:11:56.233Z,1005.31
2016-06-03T00:12:56.235Z,1005.29
2016-06-03T00:13:56.238Z,1005.29
2016-06-03T00:14:56.241Z,1005.28
2016-06-03T00:15:56.243Z,1005.26
2016-06-03T00:16:56.230Z,1005.25
2016-06-03T00:17:56.249Z,1005.27
2016-06-03T00:18:56.236Z,1005.24
2016-06-03T00:19:56.239Z,1005.23
2016-06-03T00:20:56.224Z,1005.23
2016-06-03T00:21:56.228Z,1005.26
2016-06-03T00:22:56.230Z,1005.25
2016-06-03T00:23:56.233Z,1005.25
2016-06-03T00:24:56.595Z,1005.23
2016-06-03T00:25:56.223Z,1005.26
2016-06-03T00:26:56.226Z,1005.24
2016-06-03T00:27:56.228Z,1005.19
2016-06-03T00:28:56.216Z,1005.23
2016-06-03T00:29:56.218Z,1005.23
2016-06-03T00:30:56.220Z,1005.21
2016-06-03T00:31:56.224Z,1005.21
2016-06-03T00:32:56.226Z,1005.26
2016-06-03T00:33:56.213Z,1005.21
2016-06-03T00:34:56.215Z,1005.28
2016-06-03T00:35:56.218Z,1005.24
2016-06-03T00:36:56.206Z,1005.25
2016-06-03T00:37:56.208Z,1005.22
2016-06-03T00:38:56.211Z,1005.22
2016-06-03T00:39:56.214Z,1005.24
2016-06-03T00:40:56.201Z,1005.21
2016-06-03T00:41:56.204Z,1005.23
2016-06-03T00:42:56.206Z,1005.19
2016-06-03T00:43:56.193Z,1005.19
2016-06-03T00:44:56.196Z,1005.21
2016-06-03T00:45:56.199Z,1005.23
2016-06-03T00:46:56.201Z,1005.26
2016-06-03T00:47:56.205Z,1005.24
2016-06-03T00:48:56.191Z,1005.21
2016-06-03T00:49:56.194Z,1005.18
2016-06-03T00:50:56.196Z,1005.2
2016-06-03T00:51:56.215Z,1005.17
2016-06-03T00:52:56.186Z,1005.15
2016-06-03T00:53:56.188Z,1005.16
2016-06-03T00:54:56.191Z,1005.15
2016-06-03T00:55:56.194Z,1005.15
2016-06-03T00:56:56.182Z,1005.19
2016-06-03T00:57:56.185Z,1005.21
2016-06-03T00:58:56.187Z,1005.18
2016-06-03T00:59:56.189Z,1005.19
2016-06-03T01:00:56.192Z,1005.15
2016-06-03T01:01:56.179Z,1005.16
2016-06-03T01:02:56.182Z,1005.14
2016-06-03T01:03:56.184Z,1005.17
2016-06-03T01:04:56.187Z,1005.22
2016-06-03T01:05:56.174Z,1005.19
2016-06-03T01:06:56.177Z,1005.19
2016-06-03T01:07:56.180Z,1005.19
2016-06-03T01:08:56.182Z,1005.18
2016-06-03T01:09:56.654Z,1005.18
2016-06-03T01:10:56.172Z,1005.18
2016-06-03T01:11:56.175Z,1005.17
2016-06-03T01:12:56.177Z,1005.15
2016-06-03T01:13:56.180Z,1005.23
2016-06-03T01:14:56.183Z,1005.16
2016-06-03T01:15:56.170Z,1005.16
2016-06-03T01:16:56.172Z,1005.17
2016-06-03T01:17:56.175Z,1005.19
2016-06-03T01:18:56.178Z,1005.19
2016-06-03T01:19:56.180Z,1005.16
2016-06-03T01:20:56.183Z,1005.19
2016-06-03T01:21:56.186Z,1005.14
2016-06-03T01:22:56.174Z,1005.14
2016-06-03T01:23:56.176Z,1005.15
2016-06-03T01:24:56.491Z,1005.14
2016-06-03T01:25:56.166Z,1005.14
2016-06-03T01:26:56.168Z,1005.17
2016-06-03T01:27:56.171Z,1005.17
2016-06-03T01:28:56.173Z,1005.13
2016-06-03T01:29:56.160Z,1005.18
2016-06-03T01:30:56.163Z,1005.15
2016-06-03T01:31:56.166Z,1005.14
2016-06-03T01:32:56.168Z,1005.16
2016-06-03T01:33:56.156Z,1005.13
2016-06-03T01:34:56.159Z,1005.17
2016-06-03T01:35:56.176Z,1005.18
2016-06-03T01:36:56.164Z,1005.16
2016-06-03T01:37:56.151Z,1005.17
2016-06-03T01:38:56.153Z,1005.18
2016-06-03T01:39:56.157Z,1005.19
2016-06-03T01:40:56.159Z,1005.23
2016-06-03T01:41:56.145Z,1005.23
2016-06-03T01:42:56.148Z,1005.23
2016-06-03T01:43:56.151Z,1005.23
2016-06-03T01:44:56.154Z,1005.18
2016-06-03T01:45:56.141Z,1005.19
2016-06-03T01:46:56.144Z,1005.18
2016-06-03T01:47:56.147Z,1005.18
2016-06-03T01:48:56.149Z,1005.17
2016-06-03T01:49:56.136Z,1005.15
2016-06-03T01:50:56.139Z,1005.2
2016-06-03T01:51:56.142Z,1005.2
2016-06-03T01:52:56.145Z,1005.21
2016-06-03T01:53:56.146Z,1005.16
2016-06-03T01:54:56.134Z,1005.2
2016-06-03T01:55:56.137Z,1005.17
2016-06-03T01:56:56.140Z,1005.17
2016-06-03T01:57:56.142Z,1005.19
2016-06-03T01:58:56.129Z,1005.2
2016-06-03T01:59:56.132Z,1005.17
2016-06-03T02:00:56.135Z,1005.21
2016-06-03T02:01:56.137Z,1005.13
2016-06-03T02:02:56.125Z,1005.17
2016-06-03T02:03:56.127Z,1005.19
2016-06-03T02:04:56.129Z,1005.14
2016-06-03T02:05:56.132Z,1005.14
2016-06-03T02:06:56.120Z,1005.17
2016-06-03T02:07:56.122Z,1005.15
2016-06-03T02:08:56.126Z,1005.17
2016-06-03T02:09:56.128Z,1005.17
2016-06-03T02:10:56.115Z,1005.21
2016-06-03T02:11:56.117Z,1005.21
2016-06-03T02:12:56.120Z,1005.2
2016-06-03T02:13:56.123Z,1005.21
2016-06-03T02:14:56.110Z,1005.19
2016-06-03T02:15:56.112Z,1005.19
2016-06-03T02:16:56.115Z,1005.17
2016-06-03T02:17:56.102Z,1005.17
2016-06-03T02:18:56.120Z,1005.18
2016-06-03T02:19:56.108Z,1005.18
2016-06-03T02:20:56.110Z,1005.15
2016-06-03T02:21:56.097Z,1005.15
2016-06-03T02:22:56.100Z,1005.18
2016-06-03T02:23:56.102Z,1005.17
2016-06-03T02:24:56.105Z,1005.17
2016-06-03T02:25:56.093Z,1005.16
2016-06-03T02:26:56.095Z,1005.14
2016-06-03T02:27:56.098Z,1005.11
2016-06-03T02:28:56.101Z,1005.11
2016-06-03T02:29:56.088Z,1005.1
2016-06-03T02:30:56.091Z,1005.09
2016-06-03T02:31:56.093Z,1005.1
2016-06-03T02:32:56.080Z,1005.1
2016-06-03T02:33:56.083Z,1005.09
2016-06-03T02:34:56.086Z,1005.13
2016-06-03T02:35:56.088Z,1005.12
2016-06-03T02:36:56.076Z,1005.14
2016-06-03T02:37:56.078Z,1005.12
2016-06-03T02:38:56.081Z,1005.14
2016-06-03T02:39:56.427Z,1005.13
2016-06-03T02:40:56.086Z,1005.16
2016-06-03T02:41:56.073Z,1005.15
2016-06-03T02:42:56.076Z,1005.17
2016-06-03T02:43:56.078Z,1005.19
2016-06-03T02:44:56.065Z,1005.18
2016-06-03T02:45:56.068Z,1005.24
2016-06-03T02:46:56.071Z,1005.27
2016-06-03T02:47:56.058Z,1005.25
2016-06-03T02:48:56.060Z,1005.25
2016-06-03T02:49:56.063Z,1005.23
2016-06-03T02:50:56.066Z,1005.18
2016-06-03T02:51:56.053Z,1005.24
2016-06-03T02:52:56.055Z,1005.24
2016-06-03T02:53:56.058Z,1005.26
2016-06-03T02:54:56.061Z,1005.23
2016-06-03T02:55:56.049Z,1005.27
2016-06-03T02:56:56.051Z,1005.28
2016-06-03T02:57:56.054Z,1005.26
2016-06-03T02:58:56.057Z,1005.31
2016-06-03T02:59:56.060Z,1005.29
2016-06-03T03:00:56.046Z,1005.29
2016-06-03T03:01:56.049Z,1005.28
2016-06-03T03:02:56.051Z,1005.3
2016-06-03T03:03:56.054Z,1005.28
2016-06-03T03:04:56.057Z,1005.28
2016-06-03T03:05:56.043Z,1005.26
2016-06-03T03:06:56.047Z,1005.28
2016-06-03T03:07:56.049Z,1005.25
2016-06-03T03:08:56.036Z,1005.27
2016-06-03T03:09:56.039Z,1005.3
2016-06-03T03:10:56.089Z,1005.3
2016-06-03T03:11:56.045Z,1005.28
2016-06-03T03:12:56.048Z,1005.26
2016-06-03T03:13:56.034Z,1005.29
2016-06-03T03:14:56.037Z,1005.32
2016-06-03T03:15:56.039Z,1005.34
2016-06-03T03:16:56.042Z,1005.36
2016-06-03T03:17:56.045Z,1005.35
2016-06-03T03:18:56.031Z,1005.36
2016-06-03T03:19:56.034Z,1005.34
2016-06-03T03:20:56.036Z,1005.34
2016-06-03T03:21:56.040Z,1005.33
2016-06-03T03:22:56.043Z,1005.37
2016-06-03T03:23:56.030Z,1005.37
2016-06-03T03:24:56.033Z,1005.39
2016-06-03T03:25:56.036Z,1005.4
2016-06-03T03:26:56.038Z,1005.39
2016-06-03T03:27:56.024Z,1005.42
2016-06-03T03:28:56.043Z,1005.42
2016-06-03T03:29:56.030Z,1005.41
2016-06-03T03:30:56.032Z,1005.41
2016-06-03T03:31:56.021Z,1005.4
2016-06-03T03:32:56.023Z,1005.42
2016-06-03T03:33:56.026Z,1005.42
2016-06-03T03:34:56.028Z,1005.4
2016-06-03T03:35:56.032Z,1005.36
2016-06-03T03:36:56.017Z,1005.41
2016-06-03T03:37:56.020Z,1005.4
2016-06-03T03:38:56.023Z,1005.38
2016-06-03T03:39:56.042Z,1005.39
2016-06-03T03:40:56.029Z,1005.36
2016-06-03T03:41:56.031Z,1005.37
2016-06-03T03:42:56.034Z,1005.38
2016-06-03T03:43:56.036Z,1005.38
2016-06-03T03:44:56.040Z,1005.39
2016-06-03T03:45:56.026Z,1005.4
2016-06-03T03:46:56.029Z,1005.39
2016-06-03T03:47:56.031Z,1005.39
2016-06-03T03:48:56.034Z,1005.4
2016-06-03T03:49:56.037Z,1005.4
2016-06-03T03:50:56.040Z,1005.36
2016-06-03T03:51:56.028Z,1005.41
2016-06-03T03:52:56.030Z,1005.37
2016-06-03T03:53:56.048Z,1005.4
2016-06-03T03:54:56.050Z,1005.38
2016-06-03T03:55:56.038Z,1005.39
2016-06-03T03:56:56.040Z,1005.35
2016-06-03T03:57:56.028Z,1005.37
2016-06-03T03:58:56.030Z,1005.37
2016-06-03T03:59:56.033Z,1005.36
2016-06-03T04:00:56.036Z,1005.35
2016-06-03T04:01:56.039Z,1005.35
2016-06-03T04:02:56.041Z,1005.38
2016-06-03T04:03:56.043Z,1005.36
2016-06-03T04:04:56.030Z,1005.36
2016-06-03T04:05:56.033Z,1005.32
2016-06-03T04:06:56.035Z,1005.32
2016-06-03T04:07:56.039Z,1005.29
2016-06-03T04:08:56.041Z,1005.3
2016-06-03T04:09:56.043Z,1005.28
2016-06-03T04:10:56.687Z,1005.3
2016-06-03T04:11:56.034Z,1005.32
2016-06-03T04:12:56.037Z,1005.31
2016-06-03T04:13:56.040Z,1005.36
2016-06-03T04:14:56.042Z,1005.37
2016-06-03T04:15:56.044Z,1005.39
2016-06-03T04:16:56.047Z,1005.37
2016-06-03T04:17:56.050Z,1005.37
2016-06-03T04:18:56.037Z,1005.4
2016-06-03T04:19:56.040Z,1005.37
2016-06-03T04:20:56.042Z,1005.36
2016-06-03T04:21:56.061Z,1005.36
2016-06-03T04:22:56.048Z,1005.35
2016-06-03T04:23:56.051Z,1005.36
2016-06-03T04:24:56.897Z,1005.37
2016-06-03T04:25:56.056Z,1005.36
2016-06-03T04:26:56.043Z,1005.36
2016-06-03T04:27:56.046Z,1005.31
2016-06-03T04:28:56.064Z,1005.33
2016-06-03T04:29:56.052Z,1005.31
2016-06-03T04:30:56.054Z,1005.34
2016-06-03T04:31:56.057Z,1005.38
2016-06-03T04:32:56.060Z,1005.37
2016-06-03T04:33:56.063Z,1005.39
2016-06-03T04:34:56.065Z,1005.36
2016-06-03T04:35:56.052Z,1005.33
2016-06-03T04:36:56.054Z,1005.35
2016-06-03T04:37:56.057Z,1005.32
2016-06-03T04:38:56.059Z,1005.34
2016-06-03T04:39:56.063Z,1005.34
2016-06-03T04:40:56.065Z,1005.35
2016-06-03T04:41:56.052Z,1005.32
2016-06-03T04:42:56.070Z,1005.33
2016-06-03T04:43:56.057Z,1005.32
2016-06-03T04:44:56.060Z,1005.32
2016-06-03T04:45:56.062Z,1005.31
2016-06-03T04:46:56.066Z,1005.33
2016-06-03T04:47:56.068Z,1005.34
2016-06-03T04:48:56.055Z,1005.32
2016-06-03T04:49:56.058Z,1005.37
2016-06-03T04:50:56.061Z,1005.37
2016-06-03T04:51:56.064Z,1005.37
2016-06-03T04:52:56.066Z,1005.39
2016-06-03T04:53:56.069Z,1005.43
2016-06-03T04:54:56.540Z,1005.41
2016-06-03T04:55:56.059Z,1005.38
2016-06-03T04:56:56.077Z,1005.39
2016-06-03T04:57:56.064Z,1005.45
2016-06-03T04:58:56.067Z,1005.45
2016-06-03T04:59:56.069Z,1005.45
2016-06-03T05:00:56.071Z,1005.45
2016-06-03T05:01:56.075Z,1005.44
2016-06-03T05:02:56.061Z,1005.49
2016-06-03T05:03:56.064Z,1005.47
2016-06-03T05:04:56.066Z,1005.46
2016-06-03T05:05:56.069Z,1005.45
2016-06-03T05:06:56.072Z,1005.46
2016-06-03T05:07:56.060Z,1005.5
2016-06-03T05:08:56.062Z,1005.51
2016-06-03T05:09:56.065Z,1005.49
2016-06-03T05:10:56.068Z,1005.5
2016-06-03T05:11:56.071Z,1005.52
2016-06-03T05:12:56.073Z,1005.55
2016-06-03T05:13:56.076Z,1005.55
2016-06-03T05:14:56.079Z,1005.6
2016-06-03T05:15:56.081Z,1005.6
2016-06-03T05:16:56.067Z,1005.64
2016-06-03T05:17:56.070Z,1005.61
2016-06-03T05:18:56.073Z,1005.65
2016-06-03T05:19:56.076Z,1005.61
2016-06-03T05:20:56.078Z,1005.64
2016-06-03T05:21:56.081Z,1005.67
2016-06-03T05:22:56.084Z,1005.65
2016-06-03T05:23:56.087Z,1005.66
2016-06-03T05:24:56.777Z,1005.71
2016-06-03T05:25:56.092Z,1005.67
2016-06-03T05:26:56.095Z,1005.71
2016-06-03T05:27:56.083Z,1005.73
2016-06-03T05:28:56.085Z,1005.71
2016-06-03T05:29:56.088Z,1005.73
2016-06-03T05:30:56.091Z,1005.72
2016-06-03T05:31:56.094Z,1005.74
2016-06-03T05:32:56.095Z,1005.78
2016-06-03T05:33:56.098Z,1005.79
2016-06-03T05:34:56.101Z,1005.77
2016-06-03T05:35:56.150Z,1005.8
2016-06-03T05:36:56.090Z,1005.8
2016-06-03T05:37:56.093Z,1005.81
2016-06-03T05:38:56.096Z,1005.81
2016-06-03T05:39:56.896Z,1005.81
2016-06-03T05:40:56.101Z,1005.81
2016-06-03T05:41:56.104Z,1005.82
2016-06-03T05:42:56.107Z,1005.81
2016-06-03T05:43:56.094Z,1005.81
2016-06-03T05:44:56.096Z,1005.84
2016-06-03T05:45:56.099Z,1005.87
2016-06-03T05:46:56.102Z,1005.85
2016-06-03T05:47:56.105Z,1005.89
2016-06-03T05:48:56.107Z,1005.88
2016-06-03T05:49:56.110Z,1005.9
2016-06-03T05:50:56.098Z,1005.9
2016-06-03T05:51:56.100Z,1005.91
2016-06-03T05:52:56.102Z,1005.91
2016-06-03T05:53:56.105Z,1005.92
2016-06-03T05:54:56.108Z,1005.9
2016-06-03T05:55:56.172Z,1005.92
2016-06-03T05:56:56.113Z,1005.92
2016-06-03T05:57:56.100Z,1005.89
2016-06-03T05:58:56.103Z,1005.9
2016-06-03T05:59:56.105Z,1005.91
2016-06-03T06:00:56.108Z,1005.93
2016-06-03T06:01:56.111Z,1005.89
2016-06-03T06:02:56.114Z,1005.91
2016-06-03T06:03:56.116Z,1005.93
2016-06-03T06:04:56.119Z,1005.93
2016-06-03T06:05:56.122Z,1005.94
2016-06-03T06:06:56.109Z,1005.96
2016-06-03T06:07:56.111Z,1005.96
2016-06-03T06:08:56.114Z,1005.98
2016-06-03T06:09:56.116Z,1005.97
2016-06-03T06:10:56.995Z,1005.97
2016-06-03T06:11:56.121Z,1005.96
2016-06-03T06:12:56.124Z,1005.96
2016-06-03T06:13:56.127Z,1005.99
2016-06-03T06:14:56.130Z,1005.96
2016-06-03T06:15:56.117Z,1005.94
2016-06-03T06:16:56.120Z,1005.97
2016-06-03T06:17:56.123Z,1005.97
2016-06-03T06:18:56.126Z,1005.97
2016-06-03T06:19:56.128Z,1005.96
2016-06-03T06:20:56.131Z,1005.98
2016-06-03T06:21:56.134Z,1005.98
2016-06-03T06:22:56.137Z,1005.97
2016-06-03T06:23:56.139Z,1006.01
2016-06-03T06:24:56.204Z,1005.99
2016-06-03T06:25:56.129Z,1006.06
2016-06-03T06:26:56.132Z,1006.01
2016-06-03T06:27:56.133Z,1006.04
2016-06-03T06:28:56.136Z,1006.05
2016-06-03T06:29:56.139Z,1006.01
2016-06-03T06:30:56.142Z,1006.02
2016-06-03T06:31:56.160Z,1005.99
2016-06-03T06:32:56.147Z,1005.98
2016-06-03T06:33:56.135Z,1005.99
2016-06-03T06:34:56.138Z,1006
2016-06-03T06:35:56.140Z,1006
2016-06-03T06:36:56.143Z,1006.06
2016-06-03T06:37:56.146Z,1006.02
2016-06-03T06:38:56.241Z,1006.04
2016-06-03T06:39:56.152Z,1006.07
2016-06-03T06:40:56.341Z,1006.07
2016-06-03T06:41:56.138Z,1006.09
2016-06-03T06:42:56.140Z,1006.11
2016-06-03T06:43:56.143Z,1006.11
2016-06-03T06:44:56.146Z,1006.12
2016-06-03T06:45:56.148Z,1006.12
2016-06-03T06:46:56.151Z,1006.1
2016-06-03T06:47:56.178Z,1006.17
2016-06-03T06:48:56.192Z,1006.17
2016-06-03T06:49:56.222Z,1006.16
2016-06-03T06:50:56.252Z,1006.22
2016-06-03T06:51:56.282Z,1006.19
2016-06-03T06:52:56.297Z,1006.21
2016-06-03T06:53:56.309Z,1006.23
2016-06-03T06:54:56.321Z,1006.22
2016-06-03T06:55:56.335Z,1006.26
2016-06-03T06:56:56.333Z,1006.29
2016-06-03T06:57:56.339Z,1006.35
2016-06-03T06:58:56.345Z,1006.34
2016-06-03T06:59:56.351Z,1006.32
2016-06-03T07:00:56.358Z,1006.31
2016-06-03T07:01:56.364Z,1006.31
2016-06-03T07:02:56.368Z,1006.31
2016-06-03T07:03:56.372Z,1006.3
2016-06-03T07:04:56.359Z,1006.28
2016-06-03T07:05:56.363Z,1006.27
2016-06-03T07:06:56.383Z,1006.29
2016-06-03T07:07:56.370Z,1006.28
2016-06-03T07:08:56.374Z,1006.26
2016-06-03T07:09:56.378Z,1006.26
2016-06-03T07:10:56.381Z,1006.26
2016-06-03T07:11:56.369Z,1006.24
2016-06-03T07:12:56.371Z,1006.27
2016-06-03T07:13:56.374Z,1006.24
2016-06-03T07:14:56.377Z,1006.26
2016-06-03T07:15:56.379Z,1006.26
2016-06-03T07:16:56.382Z,1006.23
2016-06-03T07:17:56.384Z,1006.26
2016-06-03T07:18:56.387Z,1006.3
2016-06-03T07:19:56.390Z,1006.32
2016-06-03T07:20:56.392Z,1006.3
2016-06-03T07:21:56.395Z,1006.27
2016-06-03T07:22:56.383Z,1006.3
2016-06-03T07:23:56.386Z,1006.3
2016-06-03T07:24:56.388Z,1006.28
2016-06-03T07:25:56.392Z,1006.34
2016-06-03T07:26:56.394Z,1006.32
2016-06-03T07:27:56.397Z,1006.35
2016-06-03T07:28:56.399Z,1006.32
2016-06-03T07:29:56.402Z,1006.33
2016-06-03T07:30:56.405Z,1006.32
2016-06-03T07:31:56.392Z,1006.28
2016-06-03T07:32:56.394Z,1006.29
2016-06-03T07:33:56.397Z,1006.32
2016-06-03T07:34:56.399Z,1006.31
2016-06-03T07:35:56.402Z,1006.31
2016-06-03T07:36:56.405Z,1006.32
2016-06-03T07:37:56.408Z,1006.29
2016-06-03T07:38:56.457Z,1006.31
2016-06-03T07:39:56.694Z,1006.3
2016-06-03T07:40:56.401Z,1006.3
2016-06-03T07:41:56.404Z,1006.25
2016-06-03T07:42:56.406Z,1006.29
2016-06-03T07:43:56.408Z,1006.28
2016-06-03T07:44:56.411Z,1006.26
2016-06-03T07:45:56.414Z,1006.24
2016-06-03T07:46:56.417Z,1006.26
2016-06-03T07:47:56.419Z,1006.28
2016-06-03T07:48:56.422Z,1006.26
2016-06-03T07:49:56.425Z,1006.34
2016-06-03T07:50:56.411Z,1006.38
2016-06-03T07:51:56.414Z,1006.39
2016-06-03T07:52:56.417Z,1006.4
2016-06-03T07:53:56.419Z,1006.42
2016-06-03T07:54:56.422Z,1006.39
2016-06-03T07:55:56.425Z,1006.36
2016-06-03T07:56:56.428Z,1006.4
2016-06-03T07:57:56.430Z,1006.32
2016-06-03T07:58:56.433Z,1006.34
2016-06-03T07:59:56.435Z,1006.31
2016-06-03T08:00:56.438Z,1006.32
2016-06-03T08:01:56.441Z,1006.3
2016-06-03T08:02:56.443Z,1006.31
2016-06-03T08:03:56.447Z,1006.3
2016-06-03T08:04:56.449Z,1006.26
2016-06-03T08:05:56.452Z,1006.27
2016-06-03T08:06:56.454Z,1006.23
2016-06-03T08:07:56.457Z,1006.23
2016-06-03T08:08:56.460Z,1006.27
2016-06-03T08:09:56.462Z,1006.23
2016-06-03T08:10:56.465Z,1006.23
2016-06-03T08:11:56.468Z,1006.23
2016-06-03T08:12:56.471Z,1006.23
2016-06-03T08:13:56.473Z,1006.22
2016-06-03T08:14:56.460Z,1006.26
2016-06-03T08:15:56.479Z,1006.26
2016-06-03T08:16:56.465Z,1006.24
2016-06-03T08:17:56.468Z,1006.27
2016-06-03T08:18:56.471Z,1006.27
2016-06-03T08:19:56.473Z,1006.24
2016-06-03T08:20:56.476Z,1006.28
2016-06-03T08:21:56.479Z,1006.26
2016-06-03T08:22:56.497Z,1006.26
2016-06-03T08:23:56.484Z,1006.32
2016-06-03T08:24:56.565Z,1006.26
2016-06-03T08:25:56.490Z,1006.26
2016-06-03T08:26:56.492Z,1006.25
2016-06-03T08:27:56.495Z,1006.23
2016-06-03T08:28:56.483Z,1006.22
2016-06-03T08:29:56.500Z,1006.23
2016-06-03T08:30:56.503Z,1006.19
2016-06-03T08:31:56.491Z,1006.21
2016-06-03T08:32:56.508Z,1006.25
2016-06-03T08:33:56.496Z,1006.27
2016-06-03T08:34:56.498Z,1006.28
2016-06-03T08:35:56.502Z,1006.33
2016-06-03T08:36:56.504Z,1006.35
2016-06-03T08:37:56.507Z,1006.31
2016-06-03T08:38:56.510Z,1006.34
2016-06-03T08:39:56.512Z,1006.28
2016-06-03T08:40:56.530Z,1006.3
2016-06-03T08:41:56.517Z,1006.25
2016-06-03T08:42:56.535Z,1006.27
2016-06-03T08:43:56.523Z,1006.28
2016-06-03T08:44:56.540Z,1006.22
2016-06-03T08:45:56.544Z,1006.21
2016-06-03T08:46:56.562Z,1006.22
2016-06-03T08:47:56.548Z,1006.28
2016-06-03T08:48:56.552Z,1006.28
2016-06-03T08:49:56.554Z,1006.29
2016-06-03T08:50:56.557Z,1006.29
2016-06-03T08:51:56.560Z,1006.26
2016-06-03T08:52:56.562Z,1006.32
2016-06-03T08:53:56.564Z,1006.37
2016-06-03T08:54:56.568Z,1006.34
2016-06-03T08:55:56.570Z,1006.37
2016-06-03T08:56:56.573Z,1006.39
2016-06-03T08:57:56.576Z,1006.37
2016-06-03T08:58:56.594Z,1006.41
2016-06-03T08:59:56.581Z,1006.36
2016-06-03T09:00:56.600Z,1006.38
2016-06-03T09:01:56.586Z,1006.36
2016-06-03T09:02:56.605Z,1006.37
2016-06-03T09:03:56.608Z,1006.38
2016-06-03T09:04:56.611Z,1006.37
2016-06-03T09:05:56.614Z,1006.36
2016-06-03T09:06:56.616Z,1006.37
2016-06-03T09:07:56.618Z,1006.39
2016-06-03T09:08:56.621Z,1006.36
2016-06-03T09:09:56.624Z,1006.39
2016-06-03T09:10:56.627Z,1006.43
2016-06-03T09:11:56.629Z,1006.41
2016-06-03T09:12:56.632Z,1006.41
2016-06-03T09:13:56.635Z,1006.43
2016-06-03T09:14:56.638Z,1006.43
2016-06-03T09:15:56.671Z,1006.36
2016-06-03T09:16:56.643Z,1006.36
2016-06-03T09:17:56.646Z,1006.35
2016-06-03T09:18:56.649Z,1006.35
2016-06-03T09:19:56.651Z,1006.38
2016-06-03T09:20:56.654Z,1006.36
2016-06-03T09:21:56.656Z,1006.39
2016-06-03T09:22:56.659Z,1006.37
2016-06-03T09:23:56.662Z,1006.42
2016-06-03T09:24:56.665Z,1006.43
2016-06-03T09:25:56.667Z,1006.36
2016-06-03T09:26:56.685Z,1006.35
2016-06-03T09:27:56.673Z,1006.35
2016-06-03T09:28:56.691Z,1006.39
2016-06-03T09:29:56.693Z,1006.34
2016-06-03T09:30:56.697Z,1006.35
2016-06-03T09:31:56.699Z,1006.35
2016-06-03T09:32:56.701Z,1006.31
2016-06-03T09:33:56.704Z,1006.34
2016-06-03T09:34:56.708Z,1006.29
2016-06-03T09:35:56.710Z,1006.31
2016-06-03T09:36:56.713Z,1006.33
2016-06-03T09:37:56.715Z,1006.29
2016-06-03T09:38:56.718Z,1006.32
2016-06-03T09:39:56.721Z,1006.33
2016-06-03T09:40:56.801Z,1006.32
2016-06-03T09:41:56.726Z,1006.34
2016-06-03T09:42:56.729Z,1006.35
2016-06-03T09:43:56.732Z,1006.38
2016-06-03T09:44:56.735Z,1006.38
2016-06-03T09:45:56.737Z,1006.4
2016-06-03T09:46:56.739Z,1006.33
2016-06-03T09:47:56.743Z,1006.34
2016-06-03T09:48:56.744Z,1006.34
2016-06-03T09:49:56.763Z,1006.32
2016-06-03T09:50:56.765Z,1006.3
2016-06-03T09:51:56.768Z,1006.31
2016-06-03T09:52:56.771Z,1006.34
2016-06-03T09:53:56.773Z,1006.33
2016-06-03T09:54:56.776Z,1006.3
2016-06-03T09:55:56.779Z,1006.3
2016-06-03T09:56:56.781Z,1006.26
2016-06-03T09:57:56.800Z,1006.3
2016-06-03T09:58:56.786Z,1006.29
2016-06-03T09:59:56.789Z,1006.32
2016-06-03T10:00:56.809Z,1006.29
2016-06-03T10:01:56.795Z,1006.38
2016-06-03T10:02:56.798Z,1006.3
2016-06-03T10:03:56.816Z,1006.27
2016-06-03T10:04:56.819Z,1006.31
2016-06-03T10:05:56.821Z,1006.27
2016-06-03T10:06:56.825Z,1006.27
2016-06-03T10:07:56.827Z,1006.28
2016-06-03T10:08:56.829Z,1006.29
2016-06-03T10:09:56.833Z,1006.29
2016-06-03T10:10:56.835Z,1006.3
2016-06-03T10:11:56.838Z,1006.32
2016-06-03T10:12:56.841Z,1006.29
2016-06-03T10:13:56.843Z,1006.26
2016-06-03T10:14:56.846Z,1006.28
2016-06-03T10:15:56.848Z,1006.26
2016-06-03T10:16:56.851Z,1006.3
2016-06-03T10:17:56.854Z,1006.31
2016-06-03T10:18:56.857Z,1006.29
2016-06-03T10:19:56.859Z,1006.3
2016-06-03T10:20:56.862Z,1006.25
2016-06-03T10:21:56.865Z,1006.28
2016-06-03T10:22:56.867Z,1006.28
2016-06-03T10:23:56.870Z,1006.3
2016-06-03T10:24:56.872Z,1006.25
2016-06-03T10:25:56.890Z,1006.25
2016-06-03T10:26:56.879Z,1006.29
2016-06-03T10:27:56.896Z,1006.28
2016-06-03T10:28:56.899Z,1006.27
2016-06-03T10:29:56.901Z,1006.25
2016-06-03T10:30:56.904Z,1006.23
2016-06-03T10:31:56.907Z,1006.28
2016-06-03T10:32:56.909Z,1006.31
2016-06-03T10:33:56.912Z,1006.32
2016-06-03T10:34:56.914Z,1006.31
2016-06-03T10:35:56.917Z,1006.3
2016-06-03T10:36:56.920Z,1006.28
2016-06-03T10:37:56.922Z,1006.27
2016-06-03T10:38:56.926Z,1006.35
2016-06-03T10:39:56.928Z,1006.32
2016-06-03T10:40:57.228Z,1006.32
2016-06-03T10:41:56.949Z,1006.36
2016-06-03T10:42:56.952Z,1006.34
2016-06-03T10:43:56.955Z,1006.34
2016-06-03T10:44:56.957Z,1006.34
2016-06-03T10:45:57.007Z,1006.35
2016-06-03T10:46:56.963Z,1006.38
2016-06-03T10:47:56.966Z,1006.39
2016-06-03T10:48:56.968Z,1006.43
2016-06-03T10:49:56.971Z,1006.38
2016-06-03T10:50:56.990Z,1006.34
2016-06-03T10:51:56.993Z,1006.41
2016-06-03T10:52:56.995Z,1006.39
2016-06-03T10:53:57.012Z,1006.4
2016-06-03T10:54:57.001Z,1006.35
2016-06-03T10:55:57.003Z,1006.36
2016-06-03T10:56:57.006Z,1006.41
2016-06-03T10:57:57.009Z,1006.41
2016-06-03T10:58:57.026Z,1006.4
2016-06-03T10:59:57.029Z,1006.46
2016-06-03T11:00:57.031Z,1006.39
2016-06-03T11:01:57.034Z,1006.4
2016-06-03T11:02:57.037Z,1006.37
2016-06-03T11:03:57.040Z,1006.35
2016-06-03T11:04:57.042Z,1006.35
2016-06-03T11:05:57.045Z,1006.33
2016-06-03T11:06:57.047Z,1006.34
2016-06-03T11:07:57.066Z,1006.34
2016-06-03T11:08:57.053Z,1006.33
2016-06-03T11:09:57.072Z,1006.35
2016-06-03T11:10:57.058Z,1006.37
2016-06-03T11:11:57.077Z,1006.35
2016-06-03T11:12:57.080Z,1006.38
2016-06-03T11:13:57.082Z,1006.41
2016-06-03T11:14:57.085Z,1006.4
2016-06-03T11:15:57.087Z,1006.39
2016-06-03T11:16:57.090Z,1006.38
2016-06-03T11:17:57.093Z,1006.37
2016-06-03T11:18:57.096Z,1006.38
2016-06-03T11:19:57.099Z,1006.36
2016-06-03T11:20:57.101Z,1006.37
2016-06-03T11:21:57.104Z,1006.36
2016-06-03T11:22:57.123Z,1006.37
2016-06-03T11:23:57.125Z,1006.39
2016-06-03T11:24:57.128Z,1006.42
2016-06-03T11:25:57.130Z,1006.38
2016-06-03T11:26:57.134Z,1006.39
2016-06-03T11:27:57.137Z,1006.4
2016-06-03T11:28:57.139Z,1006.41
2016-06-03T11:29:57.142Z,1006.44
2016-06-03T11:30:57.144Z,1006.43
2016-06-03T11:31:57.147Z,1006.42
2016-06-03T11:32:57.149Z,1006.39
2016-06-03T11:33:57.152Z,1006.4
2016-06-03T11:34:57.170Z,1006.4
2016-06-03T11:35:57.173Z,1006.35
2016-06-03T11:36:57.176Z,1006.38
2016-06-03T11:37:57.178Z,1006.38
2016-06-03T11:38:57.181Z,1006.39
2016-06-03T11:39:57.247Z,1006.38
2016-06-03T11:40:57.186Z,1006.38
2016-06-03T11:41:57.189Z,1006.36
2016-06-03T11:42:57.208Z,1006.37
2016-06-03T11:43:57.210Z,1006.37
2016-06-03T11:44:57.213Z,1006.35
2016-06-03T11:45:57.230Z,1006.36
2016-06-03T11:46:57.218Z,1006.38
2016-06-03T11:47:57.221Z,1006.39
2016-06-03T11:48:57.239Z,1006.37
2016-06-03T11:49:57.242Z,1006.31
2016-06-03T11:50:57.244Z,1006.33
2016-06-03T11:51:57.247Z,1006.31
2016-06-03T11:52:57.249Z,1006.3
2016-06-03T11:53:57.252Z,1006.32
2016-06-03T11:54:57.254Z,1006.32
2016-06-03T11:55:57.695Z,1006.31
2016-06-03T11:56:57.276Z,1006.29
2016-06-03T11:57:57.279Z,1006.26
2016-06-03T11:58:57.282Z,1006.24
2016-06-03T11:59:57.284Z,1006.22
2016-06-03T12:00:57.287Z,1006.24
2016-06-03T12:01:57.306Z,1006.21
2016-06-03T12:02:57.292Z,1006.22
2016-06-03T12:03:57.311Z,1006.19
2016-06-03T12:04:57.297Z,1006.18
2016-06-03T12:05:57.317Z,1006.14
2016-06-03T12:06:57.319Z,1006.21
2016-06-03T12:07:57.321Z,1006.15
2016-06-03T12:08:57.324Z,1006.22